createdAt,value
2023-01-10T00:00:48.310Z,100.00
2023-01-10T00:03:14.875Z,100.00
2023-01-10T00:05:41.377Z,100.00
2023-01-10T00:08:08.785Z,100.00
2023-01-10T00:10:35.616Z,100.00
2023-01-10T00:13:20.722Z,100.00
2023-01-10T00:15:48.126Z,100.00
2023-01-10T00:18:14.730Z,100.00
2023-01-10T00:20:41.389Z,100.00
2023-01-10T00:23:07.911Z,100.00
2023-01-10T00:25:36.110Z,100.00
2023-01-10T00:28:10.830Z,100.00
2023-01-10T00:30:40.988Z,100.00
2023-01-10T00:33:08.640Z,100.00
2023-01-10T00:35:35.623Z,100.00
2023-01-10T00:38:05.672Z,100.00
2023-01-10T00:40:33.480Z,100.00
2023-01-10T00:43:19.441Z,100.00
2023-01-10T00:45:46.995Z,100.00
2023-01-10T00:48:17.007Z,100.00
2023-01-10T00:50:43.738Z,100.00
2023-01-10T00:53:10.310Z,100.00
2023-01-10T00:55:37.174Z,100.00
2023-01-10T00:58:04.280Z,100.00
2023-01-10T01:00:30.807Z,100.00
2023-01-10T01:02:57.394Z,100.00
2023-01-10T01:05:23.902Z,100.00
2023-01-10T01:07:52.504Z,100.00
2023-01-10T01:10:29.240Z,100.00
2023-01-10T01:13:05.985Z,100.00
2023-01-10T01:15:33.416Z,100.00
2023-01-10T01:17:59.902Z,100.00
2023-01-10T01:20:26.893Z,100.00
2023-01-10T01:22:53.562Z,100.00
2023-01-10T01:25:22.260Z,100.00
2023-01-10T01:27:48.701Z,100.00
2023-01-10T01:30:15.459Z,100.00
2023-01-10T01:32:42.565Z,100.00
2023-01-10T01:35:13.960Z,100.00
2023-01-10T01:37:41.640Z,100.00
2023-01-10T01:40:12.977Z,100.00
2023-01-10T01:42:39.415Z,100.00
2023-01-10T01:45:08.747Z,100.00
2023-01-10T01:47:40.967Z,100.00
2023-01-10T01:50:15.501Z,100.00
2023-01-10T01:52:42.159Z,100.00
2023-01-10T01:55:08.944Z,100.00
2023-01-10T01:57:35.709Z,100.00
2023-01-10T02:00:05.071Z,100.00
2023-01-10T02:02:36.879Z,100.00
2023-01-10T02:05:07.675Z,100.00
2023-01-10T02:07:40.453Z,100.00
2023-01-10T02:10:15.651Z,100.00
2023-01-10T02:12:43.689Z,100.00
2023-01-10T02:15:10.955Z,100.00
2023-01-10T02:17:37.948Z,100.00
2023-01-10T02:20:10.751Z,100.00
2023-01-10T02:22:55.955Z,100.00
2023-01-10T02:25:47.482Z,100.00
2023-01-10T02:28:23.143Z,100.00
2023-01-10T02:31:24.266Z,100.00
2023-01-10T02:34:13.244Z,100.00
2023-01-10T02:36:56.348Z,100.00
2023-01-10T02:39:36.630Z,100.00
2023-01-10T02:42:09.520Z,100.00
2023-01-10T02:44:58.593Z,100.00
2023-01-10T02:47:38.863Z,100.00
2023-01-10T02:50:28.183Z,100.00
2023-01-10T02:52:58.239Z,100.00
2023-01-10T02:55:36.932Z,100.00
2023-01-10T02:58:37.618Z,100.00
2023-01-10T03:01:22.008Z,100.00
2023-01-10T03:04:07.170Z,100.00
2023-01-10T03:06:56.465Z,100.00
2023-01-10T03:10:10.997Z,100.00
2023-01-10T03:12:44.632Z,100.00
2023-01-10T03:15:14.475Z,100.00
2023-01-10T03:17:43.446Z,100.00
2023-01-10T03:20:10.779Z,100.00
2023-01-10T03:22:39.860Z,100.00
2023-01-10T03:25:09.945Z,100.00
2023-01-10T03:27:48.541Z,100.00
2023-01-10T03:30:36.634Z,100.00
2023-01-10T03:33:04.621Z,100.00
2023-01-10T03:36:00.918Z,100.00
2023-01-10T03:38:42.125Z,100.00
2023-01-10T03:41:16.996Z,100.00
2023-01-10T03:44:30.955Z,100.00
2023-01-10T03:47:10.309Z,100.00
2023-01-10T03:49:40.616Z,100.00
2023-01-10T03:52:10.744Z,100.00
2023-01-10T03:54:37.366Z,100.00
2023-01-10T03:57:06.215Z,100.00
2023-01-10T03:59:32.680Z,100.00
2023-01-10T04:02:02.517Z,100.00
2023-01-10T04:04:32.527Z,100.00
2023-01-10T04:07:01.831Z,100.00
2023-01-10T04:09:31.012Z,100.00
2023-01-10T04:11:57.503Z,100.00
2023-01-10T04:14:23.991Z,100.00
2023-01-10T04:16:50.490Z,100.00
2023-01-10T04:19:16.967Z,100.00
2023-01-10T04:21:43.561Z,100.00
2023-01-10T04:24:10.309Z,100.00
2023-01-10T04:26:36.742Z,100.00
2023-01-10T04:29:03.433Z,100.00
2023-01-10T04:31:32.468Z,100.00
2023-01-10T04:34:01.219Z,100.00
2023-01-10T04:36:27.707Z,100.00
2023-01-10T04:38:54.232Z,100.00
2023-01-10T04:41:20.708Z,100.00
2023-01-10T04:43:47.167Z,100.00
2023-01-10T04:46:13.643Z,100.00
2023-01-10T04:48:40.133Z,100.00
2023-01-10T04:51:06.612Z,100.00
2023-01-10T04:53:33.216Z,100.00
2023-01-10T04:56:14.917Z,100.00
2023-01-10T04:58:41.351Z,100.00
2023-01-10T05:01:11.869Z,100.00
2023-01-10T05:03:38.408Z,100.00
2023-01-10T05:06:05.880Z,100.00
2023-01-10T05:08:35.947Z,100.00
2023-01-10T05:11:05.324Z,100.00
2023-01-10T05:13:35.270Z,100.00
2023-01-10T05:16:03.788Z,100.00
2023-01-10T05:18:30.992Z,100.00
2023-01-10T05:21:08.488Z,100.00
2023-01-10T05:23:35.399Z,100.00
2023-01-10T05:26:10.504Z,100.00
2023-01-10T05:28:37.861Z,100.00
2023-01-10T05:31:09.361Z,100.00
2023-01-10T05:33:35.912Z,100.00
2023-01-10T05:36:05.359Z,100.00
2023-01-10T05:38:35.269Z,100.00
2023-01-10T05:41:01.897Z,100.00
2023-01-10T05:43:28.789Z,100.00
2023-01-10T05:45:55.260Z,100.00
2023-01-10T05:48:21.769Z,100.00
2023-01-10T05:50:49.995Z,100.00
2023-01-10T05:53:16.501Z,100.00
2023-01-10T05:55:43.092Z,100.00
2023-01-10T05:58:11.159Z,100.00
2023-01-10T06:00:39.751Z,100.00
2023-01-10T06:03:06.893Z,100.00
2023-01-10T06:05:33.489Z,100.00
2023-01-10T06:08:00.179Z,100.00
2023-01-10T06:10:27.246Z,100.00
2023-01-10T06:12:53.957Z,100.00
2023-01-10T06:15:20.522Z,100.00
2023-01-10T06:17:47.017Z,100.00
2023-01-10T06:20:13.744Z,100.00
2023-01-10T06:22:42.058Z,100.00
2023-01-10T06:25:10.916Z,100.00
2023-01-10T06:27:41.953Z,100.00
2023-01-10T06:30:10.131Z,100.00
2023-01-10T06:32:37.797Z,100.00
2023-01-10T06:35:05.785Z,100.00
2023-01-10T06:37:32.594Z,100.00
2023-01-10T06:39:59.195Z,100.00
2023-01-10T06:42:25.698Z,100.00
2023-01-10T06:44:52.272Z,100.00
2023-01-10T06:47:18.838Z,100.00
2023-01-10T06:49:45.298Z,100.00
2023-01-10T06:52:11.766Z,100.00
2023-01-10T06:54:38.445Z,100.00
2023-01-10T06:57:05.129Z,100.00
2023-01-10T06:59:32.372Z,100.00
2023-01-10T07:01:58.921Z,100.00
2023-01-10T07:04:26.921Z,100.00
2023-01-10T07:06:54.001Z,100.00
2023-01-10T07:09:20.503Z,100.00
2023-01-10T07:11:46.967Z,100.00
2023-01-10T07:14:13.400Z,100.00
2023-01-10T07:16:39.899Z,100.00
2023-01-10T07:19:09.856Z,100.00
2023-01-10T07:21:41.693Z,100.00
2023-01-10T07:24:08.760Z,100.00
2023-01-10T07:26:36.474Z,100.00
2023-01-10T07:29:03.385Z,100.00
2023-01-10T07:31:29.891Z,100.00
2023-01-10T07:33:56.348Z,100.00
2023-01-10T07:36:22.858Z,100.00
2023-01-10T07:38:49.413Z,100.00
2023-01-10T07:41:15.911Z,100.00
2023-01-10T07:43:42.407Z,100.00
2023-01-10T07:46:12.236Z,100.00
2023-01-10T07:48:41.899Z,100.00
2023-01-10T07:51:08.491Z,100.00
2023-01-10T07:53:37.402Z,100.00
2023-01-10T07:56:08.065Z,100.00
2023-01-10T07:58:36.699Z,100.00
2023-01-10T08:01:07.230Z,100.00
2023-01-10T08:03:34.201Z,100.00
2023-01-10T08:06:03.616Z,100.00
2023-01-10T08:08:30.447Z,100.00
2023-01-10T08:10:59.559Z,100.00
2023-01-10T08:13:26.617Z,100.00
2023-01-10T08:15:53.476Z,100.00
2023-01-10T08:18:21.841Z,100.00
2023-01-10T08:20:53.492Z,100.00
2023-01-10T08:23:20.730Z,98.29
2023-01-10T08:25:48.103Z,99.21
2023-01-10T08:28:15.192Z,100.00
2023-01-10T08:30:41.960Z,100.00
2023-01-10T08:33:10.149Z,97.13
2023-01-10T08:35:39.448Z,97.08
2023-01-10T08:38:09.277Z,95.60
2023-01-10T08:40:38.736Z,94.33
2023-01-10T08:43:11.923Z,94.41
2023-01-10T08:45:39.702Z,94.79
2023-01-10T08:48:09.485Z,96.00
2023-01-10T08:50:39.538Z,95.79
2023-01-10T08:53:08.600Z,94.73
2023-01-10T08:55:40.964Z,95.13
2023-01-10T08:58:10.991Z,96.70
2023-01-10T09:00:38.799Z,97.06
2023-01-10T09:03:09.369Z,97.41
2023-01-10T09:05:38.482Z,97.44
2023-01-10T09:08:08.562Z,98.00
2023-01-10T09:10:37.901Z,95.47
2023-01-10T09:13:06.610Z,95.74
2023-01-10T09:15:36.629Z,94.82
2023-01-10T09:18:08.526Z,95.17
2023-01-10T09:20:40.143Z,93.40
2023-01-10T09:23:12.629Z,91.50
2023-01-10T09:25:39.165Z,92.65
2023-01-10T09:28:09.642Z,91.87
2023-01-10T09:30:40.144Z,91.45
2023-01-10T09:33:09.727Z,91.72
2023-01-10T09:35:38.769Z,89.89
2023-01-10T09:38:17.322Z,87.72
2023-01-10T09:41:15.870Z,86.10
2023-01-10T09:43:50.529Z,86.47
2023-01-10T09:46:23.704Z,84.95
2023-01-10T09:49:15.306Z,86.22
2023-01-10T09:51:44.962Z,87.14
2023-01-10T09:54:18.455Z,86.33
2023-01-10T09:56:46.869Z,85.05
2023-01-10T09:59:17.650Z,83.68
2023-01-10T10:01:46.515Z,82.28
2023-01-10T10:04:40.828Z,82.23
2023-01-10T10:07:13.894Z,82.48
2023-01-10T10:09:40.874Z,82.41
2023-01-10T10:12:38.000Z,81.73
2023-01-10T10:15:10.377Z,83.20
2023-01-10T10:18:02.637Z,83.24
2023-01-10T10:20:31.783Z,83.98
2023-01-10T10:23:28.904Z,84.20
2023-01-10T10:25:55.370Z,82.64
2023-01-10T10:28:53.565Z,83.45
2023-01-10T10:32:18.401Z,83.62
2023-01-10T10:35:02.025Z,83.55
2023-01-10T10:37:41.187Z,84.99
2023-01-10T10:40:13.662Z,85.29
2023-01-10T10:42:49.222Z,84.87
2023-01-10T10:45:22.363Z,84.83
2023-01-10T10:48:03.223Z,84.93
2023-01-10T10:50:45.504Z,85.04
2023-01-10T10:53:11.985Z,85.97
2023-01-10T10:55:39.472Z,86.72
2023-01-10T10:58:10.590Z,86.51
2023-01-10T11:00:41.544Z,84.68
2023-01-10T11:03:17.012Z,86.87
2023-01-10T11:05:46.710Z,87.69
2023-01-10T11:08:16.463Z,86.00
2023-01-10T11:10:47.923Z,87.71
2023-01-10T11:13:38.537Z,87.76
2023-01-10T11:16:08.270Z,87.87
2023-01-10T11:18:35.048Z,89.55
2023-01-10T11:21:19.611Z,89.61
2023-01-10T11:23:53.591Z,91.22
2023-01-10T11:26:40.569Z,93.45
2023-01-10T11:29:20.111Z,95.01
2023-01-10T11:31:49.294Z,96.93
2023-01-10T11:34:26.603Z,97.48
2023-01-10T11:37:04.791Z,97.65
2023-01-10T11:39:32.892Z,98.10
2023-01-10T11:42:29.763Z,98.24
2023-01-10T11:45:17.936Z,98.83
2023-01-10T11:48:48.027Z,99.37
2023-01-10T11:51:19.761Z,98.61
2023-01-10T11:53:47.562Z,96.34
2023-01-10T11:56:24.717Z,96.34
2023-01-10T11:58:51.614Z,96.46
2023-01-10T12:01:42.662Z,97.91
2023-01-10T12:04:17.186Z,98.15
2023-01-10T12:06:46.949Z,98.03
2023-01-10T12:09:40.954Z,98.83
2023-01-10T12:12:22.916Z,98.62
2023-01-10T12:14:50.821Z,99.35
2023-01-10T12:17:29.687Z,100.00
2023-01-10T12:20:00.822Z,97.89
2023-01-10T12:22:51.465Z,96.46
2023-01-10T12:25:36.243Z,98.99
2023-01-10T12:28:04.684Z,99.21
2023-01-10T12:30:43.905Z,100.00
2023-01-10T12:33:34.767Z,100.00
2023-01-10T12:36:31.497Z,99.44
2023-01-10T12:39:19.598Z,99.82
2023-01-10T12:42:10.291Z,97.80
2023-01-10T12:44:41.486Z,99.42
2023-01-10T12:47:32.132Z,97.11
2023-01-10T12:50:17.027Z,98.72
2023-01-10T12:52:52.610Z,97.88
2023-01-10T12:55:21.695Z,97.27
2023-01-10T12:57:53.488Z,96.14
2023-01-10T13:00:48.130Z,96.03
2023-01-10T13:03:22.447Z,95.33
2023-01-10T13:05:50.755Z,96.54
2023-01-10T13:08:21.629Z,96.45
2023-01-10T13:10:52.404Z,98.24
2023-01-10T13:13:39.164Z,96.18
2023-01-10T13:16:43.220Z,97.74
2023-01-10T13:19:09.614Z,95.13
2023-01-10T13:21:39.035Z,97.56
2023-01-10T13:24:18.088Z,94.22
2023-01-10T13:26:59.299Z,92.76
2023-01-10T13:29:40.102Z,91.53
2023-01-10T13:32:25.341Z,91.42
2023-01-10T13:34:52.622Z,90.32
2023-01-10T13:37:30.447Z,90.71
2023-01-10T13:39:59.643Z,91.48
2023-01-10T13:42:49.312Z,92.58
2023-01-10T13:45:20.156Z,89.59
2023-01-10T13:48:06.886Z,89.10
2023-01-10T13:50:42.147Z,90.43
2023-01-10T13:53:13.020Z,91.44
2023-01-10T13:55:42.763Z,91.70
2023-01-10T13:58:09.463Z,91.01
2023-01-10T14:00:54.331Z,90.86
2023-01-10T14:03:41.404Z,90.64
2023-01-10T14:06:29.326Z,98.63
2023-01-10T14:09:01.469Z,91.79
2023-01-10T14:11:52.440Z,90.35
2023-01-10T14:14:24.519Z,90.02
2023-01-10T14:16:57.060Z,87.52
2023-01-10T14:19:33.672Z,89.35
2023-01-10T14:22:03.002Z,89.65
2023-01-10T14:24:41.843Z,90.92
2023-01-10T14:27:15.294Z,91.18
2023-01-10T14:29:53.428Z,92.41
2023-01-10T14:32:30.845Z,91.74
2023-01-10T14:35:00.779Z,91.72
2023-01-10T14:37:43.170Z,90.49
2023-01-10T14:40:26.891Z,91.63
2023-01-10T14:42:55.853Z,90.89
2023-01-10T14:45:36.411Z,90.28
2023-01-10T14:48:46.602Z,89.29
2023-01-10T14:51:20.944Z,89.90
2023-01-10T14:53:56.508Z,90.07
2023-01-10T14:56:46.248Z,87.92
2023-01-10T14:59:22.883Z,87.55
2023-01-10T15:02:22.983Z,87.76
2023-01-10T15:04:57.209Z,90.49
2023-01-10T15:07:25.424Z,91.72
2023-01-10T15:09:53.908Z,92.23
2023-01-10T15:12:22.350Z,92.83
2023-01-10T15:14:50.640Z,93.28
2023-01-10T15:17:22.579Z,94.41
2023-01-10T15:19:52.336Z,94.66
2023-01-10T15:22:28.115Z,95.38
2023-01-10T15:25:04.199Z,96.15
2023-01-10T15:27:32.142Z,96.68
2023-01-10T15:29:59.416Z,97.01
2023-01-10T15:32:40.082Z,96.56
2023-01-10T15:35:08.836Z,95.91
2023-01-10T15:37:39.331Z,94.96
2023-01-10T15:40:19.309Z,93.88
2023-01-10T15:42:45.809Z,92.66
2023-01-10T15:45:33.603Z,93.08
2023-01-10T15:48:08.662Z,93.66
2023-01-10T15:50:39.026Z,94.25
2023-01-10T15:53:16.044Z,94.54
2023-01-10T15:55:50.801Z,94.99
2023-01-10T15:58:35.854Z,94.72
2023-01-10T16:01:04.451Z,96.76
2023-01-10T16:03:47.354Z,97.25
2023-01-10T16:06:30.177Z,96.39
2023-01-10T16:08:59.674Z,97.02
2023-01-10T16:12:04.059Z,95.92
2023-01-10T16:14:30.928Z,96.92
2023-01-10T16:16:57.338Z,97.17
2023-01-10T16:19:26.944Z,96.76
2023-01-10T16:21:58.052Z,98.18
2023-01-10T16:24:29.829Z,99.77
2023-01-10T16:26:58.223Z,100.00
2023-01-10T16:29:24.837Z,100.00
2023-01-10T16:31:55.346Z,99.54
2023-01-10T16:34:22.010Z,99.50
2023-01-10T16:36:48.491Z,100.00
2023-01-10T16:39:18.628Z,99.07
2023-01-10T16:42:04.760Z,98.21
2023-01-10T16:44:32.717Z,98.80
2023-01-10T16:46:59.802Z,97.30
2023-01-10T16:49:26.574Z,97.08
2023-01-10T16:51:53.972Z,96.71
2023-01-10T16:54:22.678Z,97.36
2023-01-10T16:56:49.649Z,98.27
2023-01-10T16:59:18.107Z,99.40
2023-01-10T17:01:54.706Z,99.18
2023-01-10T17:04:24.983Z,98.65
2023-01-10T17:06:51.526Z,97.64
2023-01-10T17:09:26.838Z,100.00
2023-01-10T17:12:01.928Z,100.00
2023-01-10T17:14:30.202Z,98.95
2023-01-10T17:16:57.002Z,98.33
2023-01-10T17:19:24.411Z,98.28
2023-01-10T17:21:50.996Z,99.25
2023-01-10T17:24:17.513Z,99.56
2023-01-10T17:26:46.952Z,99.27
2023-01-10T17:29:16.487Z,99.72
2023-01-10T17:31:46.482Z,99.17
2023-01-10T17:34:15.299Z,99.90
2023-01-10T17:36:42.513Z,100.00
2023-01-10T17:39:08.955Z,100.00
2023-01-10T17:41:35.559Z,100.00
2023-01-10T17:44:03.027Z,99.83
2023-01-10T17:46:29.499Z,99.85
2023-01-10T17:48:56.017Z,100.00
2023-01-10T17:51:24.608Z,100.00
2023-01-10T17:53:51.625Z,96.97
2023-01-10T17:56:20.381Z,96.71
2023-01-10T17:58:47.354Z,96.34
2023-01-10T18:01:25.201Z,96.09
2023-01-10T18:03:52.823Z,97.00
2023-01-10T18:06:24.313Z,96.23
2023-01-10T18:08:51.418Z,97.25
2023-01-10T18:11:17.992Z,96.31
2023-01-10T18:13:47.576Z,95.58
2023-01-10T18:16:16.252Z,96.23
2023-01-10T18:18:42.750Z,95.20
2023-01-10T18:21:17.911Z,95.11
2023-01-10T18:23:49.902Z,95.29
2023-01-10T18:26:16.733Z,95.79
2023-01-10T18:28:45.521Z,96.84
2023-01-10T18:31:18.392Z,95.84
2023-01-10T18:33:50.863Z,96.89
2023-01-10T18:36:22.939Z,96.75
2023-01-10T18:38:50.830Z,97.47
2023-01-10T18:41:19.282Z,97.80
2023-01-10T18:43:47.831Z,95.89
2023-01-10T18:46:18.679Z,95.16
2023-01-10T18:48:51.453Z,96.41
2023-01-10T18:51:19.267Z,97.86
2023-01-10T18:53:49.059Z,98.20
2023-01-10T18:56:17.368Z,98.86
2023-01-10T18:58:47.543Z,98.49
2023-01-10T19:01:19.483Z,99.54
2023-01-10T19:03:50.577Z,99.93
2023-01-10T19:06:22.797Z,100.00
2023-01-10T19:08:52.635Z,99.86
2023-01-10T19:11:19.760Z,100.00
2023-01-10T19:13:48.799Z,99.98
2023-01-10T19:16:21.851Z,99.80
2023-01-10T19:18:57.088Z,98.66
2023-01-10T19:21:25.264Z,99.21
2023-01-10T19:23:56.617Z,97.78
2023-01-10T19:26:23.991Z,98.97
2023-01-10T19:28:50.749Z,99.64
2023-01-10T19:31:24.254Z,99.03
2023-01-10T19:33:51.635Z,100.00
2023-01-10T19:36:24.263Z,100.00
2023-01-10T19:38:55.782Z,99.22
2023-01-10T19:41:23.013Z,99.59
2023-01-10T19:43:57.396Z,98.37
2023-01-10T19:46:24.450Z,97.98
2023-01-10T19:48:58.886Z,97.34
2023-01-10T19:51:25.429Z,98.23
2023-01-10T19:53:51.912Z,99.16
2023-01-10T19:56:22.860Z,98.73
2023-01-10T19:58:50.587Z,98.93
2023-01-10T20:01:30.088Z,98.56
2023-01-10T20:03:58.392Z,97.46
2023-01-10T20:06:26.956Z,97.02
2023-01-10T20:08:54.578Z,95.95
2023-01-10T20:11:23.047Z,95.86
2023-01-10T20:13:52.849Z,97.12
2023-01-10T20:16:22.895Z,97.10
2023-01-10T20:18:53.256Z,96.66
2023-01-10T20:21:21.034Z,96.75
2023-01-10T20:23:50.547Z,96.99
2023-01-10T20:26:20.827Z,96.85
2023-01-10T20:28:50.526Z,96.83
2023-01-10T20:31:23.942Z,96.67
2023-01-10T20:33:51.006Z,96.06
2023-01-10T20:36:22.664Z,94.91
2023-01-10T20:38:52.667Z,95.22
2023-01-10T20:41:21.278Z,96.40
2023-01-10T20:43:50.522Z,95.20
2023-01-10T20:46:23.098Z,94.46
2023-01-10T20:48:51.831Z,96.33
2023-01-10T20:51:21.870Z,95.57
2023-01-10T20:53:53.826Z,96.90
2023-01-10T20:56:25.031Z,98.38
2023-01-10T20:58:52.998Z,96.99
2023-01-10T21:01:33.526Z,96.22
2023-01-10T21:04:01.393Z,97.92
2023-01-10T21:06:28.237Z,99.95
2023-01-10T21:08:54.889Z,100.00
2023-01-10T21:11:21.727Z,100.00
2023-01-10T21:13:50.546Z,100.00
2023-01-10T21:16:20.594Z,100.00
2023-01-10T21:18:47.680Z,100.00
2023-01-10T21:21:16.907Z,99.64
2023-01-10T21:23:43.567Z,99.97
2023-01-10T21:26:12.929Z,100.00
2023-01-10T21:28:46.709Z,100.00
2023-01-10T21:31:16.186Z,100.00
2023-01-10T21:33:43.301Z,100.00
2023-01-10T21:36:13.403Z,100.00
2023-01-10T21:38:40.892Z,100.00
2023-01-10T21:41:37.185Z,100.00
2023-01-10T21:44:04.775Z,100.00
2023-01-10T21:46:31.883Z,100.00
2023-01-10T21:48:58.738Z,100.00
2023-01-10T21:51:25.243Z,100.00
2023-01-10T21:53:52.712Z,100.00
2023-01-10T21:56:21.239Z,100.00
2023-01-10T21:58:48.267Z,100.00
2023-01-10T22:01:15.975Z,100.00
2023-01-10T22:03:45.275Z,100.00
2023-01-10T22:06:12.144Z,100.00
2023-01-10T22:08:38.961Z,100.00
2023-01-10T22:11:05.944Z,100.00
2023-01-10T22:13:32.724Z,100.00
2023-01-10T22:16:00.982Z,100.00
2023-01-10T22:18:28.571Z,100.00
2023-01-10T22:20:56.010Z,100.00
2023-01-10T22:23:24.692Z,100.00
2023-01-10T22:26:02.364Z,99.63
2023-01-10T22:28:29.517Z,99.82
2023-01-10T22:30:56.275Z,100.00
2023-01-10T22:33:24.448Z,100.00
2023-01-10T22:35:53.351Z,100.00
2023-01-10T22:38:20.270Z,100.00
2023-01-10T22:40:46.773Z,100.00
2023-01-10T22:43:13.361Z,100.00
2023-01-10T22:45:43.274Z,100.00
2023-01-10T22:48:10.316Z,100.00
2023-01-10T22:50:36.947Z,100.00
2023-01-10T22:53:04.226Z,100.00
2023-01-10T22:55:30.821Z,100.00
2023-01-10T22:57:57.265Z,100.00
2023-01-10T23:00:26.567Z,100.00
2023-01-10T23:02:55.892Z,100.00
2023-01-10T23:05:26.932Z,100.00
2023-01-10T23:07:56.766Z,100.00
2023-01-10T23:10:30.746Z,100.00
2023-01-10T23:12:58.171Z,100.00
2023-01-10T23:15:26.254Z,100.00
2023-01-10T23:17:52.676Z,100.00
2023-01-10T23:20:19.274Z,100.00
2023-01-10T23:22:45.725Z,100.00
2023-01-10T23:25:12.385Z,100.00
2023-01-10T23:27:39.401Z,100.00
2023-01-10T23:30:07.814Z,99.92
2023-01-10T23:32:34.345Z,100.00
2023-01-10T23:35:00.776Z,100.00
2023-01-10T23:37:27.659Z,99.97
2023-01-10T23:39:54.123Z,99.35
2023-01-10T23:42:20.596Z,100.00
2023-01-10T23:44:47.053Z,99.57
2023-01-10T23:47:13.975Z,99.60
2023-01-10T23:49:40.465Z,99.30
2023-01-10T23:52:06.915Z,99.45
2023-01-10T23:54:33.415Z,99.29
2023-01-10T23:57:00.000Z,99.62
2023-01-10T23:59:29.509Z,99.54
